createdAt,value
2019-02-02T00:01:20.934Z,21.57
2019-02-02T00:03:50.086Z,21.90
2019-02-02T00:06:19.340Z,21.77
2019-02-02T00:08:48.661Z,22.20
2019-02-02T00:11:17.871Z,22.03
2019-02-02T00:13:47.184Z,24.40
2019-02-02T00:16:16.403Z,22.60
2019-02-02T00:18:45.581Z,22.80
2019-02-02T00:21:14.708Z,22.70
2019-02-02T00:23:43.864Z,22.23
2019-02-02T00:26:12.948Z,20.33
2019-02-02T00:28:42.054Z,22.40
2019-02-02T00:31:11.303Z,21.93
2019-02-02T00:33:40.491Z,23.17
2019-02-02T00:36:09.703Z,22.17
2019-02-02T00:38:38.701Z,22.07
2019-02-02T00:41:07.976Z,24.27
2019-02-02T00:43:38.565Z,21.43
2019-02-02T00:46:08.134Z,22.53
2019-02-02T00:48:37.710Z,22.97
2019-02-02T00:51:06.944Z,21.90
2019-02-02T00:53:36.105Z,24.07
2019-02-02T00:56:05.508Z,22.80
2019-02-02T00:58:34.625Z,21.43
2019-02-02T01:01:04.008Z,23.07
2019-02-02T01:03:33.453Z,21.57
2019-02-02T01:06:04.785Z,22.40
2019-02-02T01:08:33.513Z,23.00
2019-02-02T01:11:02.880Z,21.97
2019-02-02T01:13:32.021Z,21.97
2019-02-02T01:16:01.305Z,23.00
2019-02-02T01:18:30.467Z,22.57
2019-02-02T01:20:59.613Z,23.30
2019-02-02T01:23:28.857Z,22.37
2019-02-02T01:25:58.162Z,23.07
2019-02-02T01:28:27.272Z,21.67
2019-02-02T01:30:56.572Z,23.80
2019-02-02T01:33:25.834Z,23.03
2019-02-02T01:35:55.021Z,22.77
2019-02-02T01:38:24.234Z,21.47
2019-02-02T01:40:53.534Z,23.37
2019-02-02T01:43:22.914Z,24.10
2019-02-02T01:45:52.290Z,24.33
2019-02-02T01:48:21.313Z,23.23
2019-02-02T01:50:50.348Z,21.73
2019-02-02T01:53:19.340Z,24.07
2019-02-02T01:55:48.333Z,22.10
2019-02-02T01:58:17.498Z,22.87
2019-02-02T02:00:46.977Z,22.33
2019-02-02T02:03:16.099Z,22.73
2019-02-02T02:05:45.273Z,24.30
2019-02-02T02:08:14.357Z,23.27
2019-02-02T02:10:43.482Z,22.80
2019-02-02T02:13:12.624Z,22.93
2019-02-02T02:15:41.850Z,21.60
2019-02-02T02:18:11.089Z,23.37
2019-02-02T02:20:40.356Z,23.23
2019-02-02T02:23:09.627Z,21.53
2019-02-02T02:25:38.730Z,22.30
2019-02-02T02:28:07.838Z,23.67
2019-02-02T02:30:36.881Z,24.93
2019-02-02T02:33:06.014Z,22.67
2019-02-02T02:35:35.137Z,24.83
2019-02-02T02:38:04.533Z,23.60
2019-02-02T02:40:33.750Z,23.63
2019-02-02T02:43:02.975Z,23.03
2019-02-02T02:45:32.109Z,23.90
2019-02-02T02:48:01.249Z,23.57
2019-02-02T02:50:30.383Z,23.80
2019-02-02T02:52:59.557Z,24.93
2019-02-02T02:55:28.660Z,22.47
2019-02-02T02:57:57.937Z,22.33
2019-02-02T03:00:27.703Z,23.70
2019-02-02T03:02:56.909Z,22.80
2019-02-02T03:05:26.095Z,24.43
2019-02-02T03:07:55.417Z,23.57
2019-02-02T03:10:24.850Z,23.20
2019-02-02T03:12:54.568Z,24.17
2019-02-02T03:15:23.909Z,22.90
2019-02-02T03:17:53.359Z,26.53
2019-02-02T03:20:22.504Z,24.23
2019-02-02T03:22:51.810Z,22.73
2019-02-02T03:25:22.679Z,22.43
2019-02-02T03:27:51.810Z,22.87
2019-02-02T03:30:21.991Z,23.20
2019-02-02T03:32:51.408Z,23.63
2019-02-02T03:35:22.426Z,21.93
2019-02-02T03:37:52.239Z,23.97
2019-02-02T03:40:22.475Z,22.83
2019-02-02T03:42:51.544Z,23.93
2019-02-02T03:45:22.861Z,23.10
2019-02-02T03:47:52.905Z,23.47
2019-02-02T03:50:22.055Z,23.20
2019-02-02T03:52:51.146Z,25.93
2019-02-02T03:55:20.441Z,23.47
2019-02-02T03:57:49.672Z,23.90
2019-02-02T04:00:19.999Z,23.40
2019-02-02T04:02:49.731Z,23.23
2019-02-02T04:05:26.885Z,24.03
2019-02-02T04:07:56.515Z,24.43
2019-02-02T04:10:25.893Z,24.80
2019-02-02T04:12:54.978Z,22.03
2019-02-02T04:15:24.195Z,23.83
2019-02-02T04:17:53.929Z,22.37
2019-02-02T04:20:23.454Z,23.37
2019-02-02T04:22:52.884Z,23.07
2019-02-02T04:25:22.816Z,23.57
2019-02-02T04:27:51.856Z,23.20
2019-02-02T04:30:22.985Z,23.40
2019-02-02T04:32:52.159Z,23.63
2019-02-02T04:35:21.573Z,23.07
2019-02-02T04:37:51.007Z,23.20
2019-02-02T04:40:20.267Z,23.57
2019-02-02T04:42:49.450Z,23.57
2019-02-02T04:45:18.678Z,22.73
2019-02-02T04:47:47.833Z,24.17
2019-02-02T04:50:17.890Z,23.50
2019-02-02T04:52:47.103Z,23.70
2019-02-02T04:55:17.578Z,25.70
2019-02-02T04:57:46.743Z,25.47
2019-02-02T05:00:24.080Z,22.60
2019-02-02T05:02:53.377Z,24.60
2019-02-02T05:05:22.612Z,25.10
2019-02-02T05:07:51.848Z,23.80
2019-02-02T05:10:22.104Z,23.37
2019-02-02T05:12:51.498Z,23.70
2019-02-02T05:15:21.141Z,24.33
2019-02-02T05:17:50.607Z,23.63
2019-02-02T05:20:19.925Z,24.47
2019-02-02T05:22:49.305Z,25.53
2019-02-02T05:25:18.689Z,23.27
2019-02-02T05:27:48.022Z,24.87
2019-02-02T05:30:19.790Z,23.50
2019-02-02T05:32:48.800Z,24.53
2019-02-02T05:35:18.111Z,22.63
2019-02-02T05:37:47.268Z,24.80
2019-02-02T05:40:17.869Z,24.40
2019-02-02T05:42:47.136Z,24.50
2019-02-02T05:45:17.975Z,22.90
2019-02-02T05:47:47.165Z,22.93
2019-02-02T05:50:21.048Z,23.10
2019-02-02T05:52:50.154Z,24.33
2019-02-02T05:55:19.820Z,24.30
2019-02-02T05:57:49.027Z,24.30
2019-02-02T06:00:30.313Z,23.77
2019-02-02T06:02:59.726Z,23.43
2019-02-02T06:05:29.195Z,24.30
2019-02-02T06:07:58.421Z,24.57
2019-02-02T06:10:27.791Z,23.90
2019-02-02T06:12:57.282Z,24.83
2019-02-02T06:15:28.620Z,25.20
2019-02-02T06:17:57.355Z,25.47
2019-02-02T06:20:26.725Z,24.60
2019-02-02T06:22:56.184Z,25.70
2019-02-02T06:25:25.641Z,25.30
2019-02-02T06:27:54.973Z,24.13
2019-02-02T06:30:24.258Z,25.70
2019-02-02T06:32:53.365Z,25.00
2019-02-02T06:35:22.544Z,24.97
2019-02-02T06:37:51.710Z,23.50
2019-02-02T06:40:21.083Z,23.93
2019-02-02T06:42:50.431Z,26.70
2019-02-02T06:45:22.645Z,23.07
2019-02-02T06:47:51.901Z,23.63
2019-02-02T06:50:21.186Z,24.93
2019-02-02T06:52:50.299Z,24.87
2019-02-02T06:55:19.394Z,22.97
2019-02-02T06:57:48.793Z,24.87
2019-02-02T07:00:20.044Z,23.57
2019-02-02T07:03:08.289Z,24.37
2019-02-02T07:05:37.783Z,24.47
2019-02-02T07:08:07.034Z,25.47
2019-02-02T07:10:36.112Z,23.37
2019-02-02T07:13:05.539Z,26.43
2019-02-02T07:15:34.844Z,23.67
2019-02-02T07:18:04.480Z,25.50
2019-02-02T07:20:33.946Z,24.93
2019-02-02T07:23:03.145Z,25.97
2019-02-02T07:25:32.757Z,24.73
2019-02-02T07:28:02.215Z,24.77
2019-02-02T07:30:32.414Z,24.50
2019-02-02T07:33:01.532Z,26.77
2019-02-02T07:35:30.711Z,24.90
2019-02-02T07:38:00.174Z,27.57
2019-02-02T07:40:29.475Z,26.73
2019-02-02T07:42:59.030Z,28.60
2019-02-02T07:45:30.028Z,27.50
2019-02-02T07:47:59.358Z,26.57
2019-02-02T07:50:29.089Z,27.60
2019-02-02T07:52:58.336Z,27.17
2019-02-02T07:55:27.483Z,27.90
2019-02-02T07:57:57.090Z,27.77
2019-02-02T08:00:40.242Z,28.03
2019-02-02T08:03:03.252Z,29.53
2019-02-02T08:05:32.393Z,28.93
2019-02-02T08:08:01.880Z,29.00
2019-02-02T08:10:31.083Z,28.87
2019-02-02T08:13:00.417Z,29.87
2019-02-02T08:15:31.142Z,30.03
2019-02-02T08:18:00.343Z,30.63
2019-02-02T08:20:29.785Z,31.00
2019-02-02T08:22:58.835Z,29.50
2019-02-02T08:25:28.354Z,29.83
2019-02-02T08:27:57.994Z,31.93
2019-02-02T08:30:29.253Z,30.17
2019-02-02T08:32:58.362Z,30.40
2019-02-02T08:35:27.474Z,32.00
2019-02-02T08:37:56.710Z,30.10
2019-02-02T08:40:25.946Z,33.37
2019-02-02T08:42:55.358Z,33.17
2019-02-02T08:45:24.590Z,30.17
2019-02-02T08:47:55.523Z,30.90
2019-02-02T08:50:36.127Z,31.37
2019-02-02T08:53:06.763Z,30.00
2019-02-02T08:55:36.017Z,30.97
2019-02-02T08:58:06.072Z,32.40
2019-02-02T09:00:35.462Z,31.07
2019-02-02T09:03:04.784Z,31.90
2019-02-02T09:05:33.907Z,31.33
2019-02-02T09:08:06.416Z,30.70
2019-02-02T09:10:36.218Z,31.67
2019-02-02T09:13:05.778Z,30.53
2019-02-02T09:15:34.845Z,29.67
2019-02-02T09:18:03.999Z,30.37
2019-02-02T09:20:33.081Z,32.03
2019-02-02T09:23:06.451Z,31.00
2019-02-02T09:25:33.362Z,32.37
2019-02-02T09:28:02.925Z,30.23
2019-02-02T09:30:34.603Z,33.90
2019-02-02T09:33:03.866Z,32.40
2019-02-02T09:35:33.307Z,32.57
2019-02-02T09:38:11.757Z,31.23
2019-02-02T09:40:40.133Z,32.23
2019-02-02T09:43:09.503Z,31.50
2019-02-02T09:45:38.865Z,32.03
2019-02-02T09:48:08.050Z,32.27
2019-02-02T09:50:37.543Z,31.97
2019-02-02T09:53:06.861Z,35.13
2019-02-02T09:55:36.116Z,32.83
2019-02-02T09:58:09.041Z,31.17
2019-02-02T10:00:38.640Z,31.17
2019-02-02T10:03:07.785Z,31.73
2019-02-02T10:05:36.942Z,33.20
2019-02-02T10:08:06.149Z,33.60
2019-02-02T10:10:36.994Z,32.63
2019-02-02T10:13:07.289Z,32.03
2019-02-02T10:15:38.547Z,32.10
2019-02-02T10:18:07.792Z,34.00
2019-02-02T10:20:36.992Z,32.73
2019-02-02T10:23:06.490Z,34.53
2019-02-02T10:25:35.766Z,39.43
2019-02-02T10:28:05.435Z,36.57
2019-02-02T10:30:36.740Z,35.80
2019-02-02T10:33:06.249Z,35.77
2019-02-02T10:35:35.272Z,34.60
2019-02-02T10:38:04.797Z,34.10
2019-02-02T10:40:34.126Z,35.97
2019-02-02T10:43:07.556Z,35.40
2019-02-02T10:45:38.878Z,36.17
2019-02-02T10:48:08.348Z,37.07
2019-02-02T10:50:37.444Z,34.07
2019-02-02T10:53:07.332Z,35.33
2019-02-02T10:55:36.521Z,35.50
2019-02-02T10:58:06.435Z,36.83
2019-02-02T11:00:37.433Z,38.63
2019-02-02T11:03:06.927Z,36.07
2019-02-02T11:05:36.261Z,36.93
2019-02-02T11:08:06.358Z,37.57
2019-02-02T11:10:36.155Z,37.87
2019-02-02T11:13:06.513Z,37.87
2019-02-02T11:15:35.804Z,38.13
2019-02-02T11:18:05.858Z,39.10
2019-02-02T11:20:35.940Z,41.27
2019-02-02T11:23:06.083Z,42.47
2019-02-02T11:25:35.315Z,41.80
2019-02-02T11:28:04.726Z,43.40
2019-02-02T11:30:34.184Z,41.83
2019-02-02T11:33:03.475Z,39.53
2019-02-02T11:35:32.489Z,40.50
2019-02-02T11:38:02.646Z,41.73
2019-02-02T11:40:32.995Z,42.17
2019-02-02T11:43:02.186Z,43.00
2019-02-02T11:45:31.358Z,43.77
2019-02-02T11:48:00.657Z,41.43
2019-02-02T11:50:29.717Z,37.47
2019-02-02T11:52:59.009Z,33.30
2019-02-02T11:55:28.231Z,35.47
2019-02-02T11:57:57.414Z,32.83
2019-02-02T12:00:31.421Z,32.73
2019-02-02T12:03:00.634Z,32.03
2019-02-02T12:05:29.819Z,32.70
2019-02-02T12:07:59.014Z,31.90
2019-02-02T12:10:28.779Z,32.07
2019-02-02T12:12:58.171Z,32.80
2019-02-02T12:15:27.372Z,34.77
2019-02-02T12:17:56.578Z,41.37
2019-02-02T12:20:25.837Z,33.70
2019-02-02T12:22:55.045Z,32.90
2019-02-02T12:25:24.661Z,35.80
2019-02-02T12:27:54.123Z,35.50
2019-02-02T12:30:29.002Z,37.40
2019-02-02T12:32:58.185Z,37.17
2019-02-02T12:35:27.660Z,37.73
2019-02-02T12:37:56.855Z,35.33
2019-02-02T12:40:26.299Z,34.37
2019-02-02T12:42:56.425Z,36.73
2019-02-02T12:45:37.275Z,37.53
2019-02-02T12:48:07.585Z,36.00
2019-02-02T12:50:37.292Z,37.53
2019-02-02T12:53:07.723Z,38.90
2019-02-02T12:55:37.143Z,39.10
2019-02-02T12:58:07.110Z,35.77
2019-02-02T13:00:36.511Z,37.20
2019-02-02T13:03:06.345Z,37.10
2019-02-02T13:05:38.909Z,39.40
2019-02-02T13:08:06.966Z,36.37
2019-02-02T13:10:36.752Z,34.20
2019-02-02T13:13:06.123Z,37.67
2019-02-02T13:15:35.511Z,35.57
2019-02-02T13:18:04.867Z,35.47
2019-02-02T13:20:34.130Z,35.93
2019-02-02T13:23:04.620Z,38.77
2019-02-02T13:25:33.924Z,37.13
2019-02-02T13:28:03.244Z,37.77
2019-02-02T13:30:34.213Z,37.83
2019-02-02T13:33:03.503Z,40.10
2019-02-02T13:35:34.410Z,39.80
2019-02-02T13:38:03.674Z,41.77
2019-02-02T13:40:32.837Z,40.03
2019-02-02T13:43:02.162Z,37.57
2019-02-02T13:45:31.342Z,43.00
2019-02-02T13:48:00.998Z,40.27
2019-02-02T13:50:30.650Z,40.80
2019-02-02T13:53:00.059Z,40.03
2019-02-02T13:55:29.411Z,41.80
2019-02-02T13:57:59.951Z,46.13
2019-02-02T14:00:31.327Z,46.77
2019-02-02T14:03:03.192Z,41.50
2019-02-02T14:05:32.460Z,39.77
2019-02-02T14:08:03.138Z,38.60
2019-02-02T14:10:33.607Z,40.13
2019-02-02T14:13:04.174Z,40.20
2019-02-02T14:15:33.540Z,39.80
2019-02-02T14:18:02.676Z,39.57
2019-02-02T14:20:31.911Z,47.50
2019-02-02T14:23:00.994Z,45.60
2019-02-02T14:25:30.136Z,43.43
2019-02-02T14:27:59.366Z,42.47
2019-02-02T14:30:28.599Z,44.57
2019-02-02T14:32:57.994Z,40.80
2019-02-02T14:35:27.825Z,39.90
2019-02-02T14:37:56.957Z,38.27
2019-02-02T14:40:26.009Z,39.53
2019-02-02T14:42:55.236Z,37.07
2019-02-02T14:45:27.375Z,37.80
2019-02-02T14:47:56.131Z,38.23
2019-02-02T14:50:25.648Z,37.47
2019-02-02T14:52:54.831Z,39.87
2019-02-02T14:55:26.061Z,38.43
2019-02-02T14:57:55.712Z,36.80
2019-02-02T15:00:26.631Z,37.73
2019-02-02T15:02:55.764Z,38.33
2019-02-02T15:05:24.936Z,39.07
2019-02-02T15:07:54.034Z,37.43
2019-02-02T15:10:23.775Z,39.13
2019-02-02T15:12:52.926Z,36.90
2019-02-02T15:15:22.197Z,37.87
2019-02-02T15:17:51.366Z,38.30
2019-02-02T15:20:28.977Z,37.93
2019-02-02T15:22:57.969Z,38.70
2019-02-02T15:25:27.246Z,39.30
2019-02-02T15:27:56.273Z,40.03
2019-02-02T15:30:26.706Z,37.37
2019-02-02T15:32:55.978Z,40.17
2019-02-02T15:35:25.620Z,40.47
2019-02-02T15:37:54.813Z,40.23
2019-02-02T15:40:24.321Z,40.27
2019-02-02T15:42:53.608Z,42.80
2019-02-02T15:45:24.157Z,41.63
2019-02-02T15:47:53.321Z,40.97
2019-02-02T15:50:22.355Z,42.33
2019-02-02T15:52:51.443Z,43.10
2019-02-02T15:55:22.038Z,41.23
2019-02-02T15:57:52.484Z,42.73
2019-02-02T16:00:26.312Z,42.67
2019-02-02T16:02:55.637Z,40.23
2019-02-02T16:05:24.863Z,40.80
2019-02-02T16:07:53.989Z,40.17
2019-02-02T16:10:25.029Z,42.27
2019-02-02T16:12:54.373Z,42.47
2019-02-02T16:15:23.657Z,41.87
2019-02-02T16:17:52.747Z,43.40
2019-02-02T16:20:24.045Z,43.83
2019-02-02T16:22:53.178Z,44.30
2019-02-02T16:25:22.311Z,43.40
2019-02-02T16:27:54.456Z,44.93
2019-02-02T16:30:24.976Z,42.33
2019-02-02T16:32:54.035Z,43.40
2019-02-02T16:35:23.143Z,44.97
2019-02-02T16:37:52.363Z,44.70
2019-02-02T16:40:23.077Z,43.30
2019-02-02T16:45:28.766Z,47.60
2019-02-02T16:47:57.925Z,47.30
2019-02-02T16:50:27.506Z,48.00
2019-02-02T16:52:56.698Z,47.10
2019-02-02T16:55:25.847Z,47.20
2019-02-02T16:57:55.607Z,47.30
2019-02-02T17:00:29.852Z,46.37
2019-02-02T17:02:59.005Z,44.43
2019-02-02T17:05:28.105Z,47.37
2019-02-02T17:07:57.269Z,45.47
2019-02-02T17:10:31.140Z,44.63
2019-02-02T17:13:00.391Z,43.97
2019-02-02T17:15:29.604Z,43.67
2019-02-02T17:17:59.738Z,46.60
2019-02-02T17:20:40.554Z,40.60
2019-02-02T17:23:09.530Z,43.27
2019-02-02T17:25:38.598Z,42.57
2019-02-02T17:28:07.985Z,44.53
2019-02-02T17:30:37.037Z,42.37
2019-02-02T17:33:08.355Z,45.60
2019-02-02T17:35:38.118Z,43.27
2019-02-02T17:38:07.189Z,44.67
2019-02-02T17:40:36.293Z,47.23
2019-02-02T17:43:05.615Z,42.90
2019-02-02T17:45:34.573Z,44.43
2019-02-02T17:48:03.831Z,46.03
2019-02-02T17:50:32.911Z,41.73
2019-02-02T17:53:01.944Z,46.47
2019-02-02T17:55:30.988Z,40.50
2019-02-02T17:58:00.132Z,45.60
2019-02-02T18:00:41.181Z,41.67
2019-02-02T18:03:10.183Z,42.23
2019-02-02T18:05:39.593Z,38.43
2019-02-02T18:08:08.665Z,40.93
2019-02-02T18:10:37.642Z,39.53
2019-02-02T18:13:06.902Z,37.30
2019-02-02T18:15:36.127Z,44.90
2019-02-02T18:18:05.719Z,46.07
2019-02-02T18:20:34.756Z,44.40
2019-02-02T18:23:03.782Z,41.53
2019-02-02T18:25:32.798Z,43.73
2019-02-02T18:28:01.975Z,43.80
2019-02-02T18:30:31.137Z,40.97
2019-02-02T18:33:00.186Z,41.03
2019-02-02T18:35:29.274Z,43.37
2019-02-02T18:37:58.432Z,34.80
2019-02-02T18:40:27.369Z,43.17
2019-02-02T18:42:56.389Z,41.40
2019-02-02T18:45:26.167Z,41.90
2019-02-02T18:47:55.244Z,42.43
2019-02-02T18:50:24.364Z,43.50
2019-02-02T18:52:53.760Z,42.37
2019-02-02T18:55:25.817Z,42.53
2019-02-02T18:57:54.714Z,40.60
2019-02-02T19:00:23.893Z,37.03
2019-02-02T19:02:53.087Z,41.67
2019-02-02T19:05:22.191Z,36.77
2019-02-02T19:07:51.230Z,43.27
2019-02-02T19:10:23.217Z,41.23
2019-02-02T19:12:52.187Z,41.60
2019-02-02T19:15:21.193Z,43.00
2019-02-02T19:17:50.385Z,38.80
2019-02-02T19:20:20.507Z,40.13
2019-02-02T19:22:50.668Z,41.37
2019-02-02T19:25:19.692Z,42.93
2019-02-02T19:27:48.726Z,44.33
2019-02-02T19:30:20.309Z,45.30
2019-02-02T19:32:49.169Z,41.20
2019-02-02T19:35:18.243Z,40.53
2019-02-02T19:37:47.334Z,42.60
2019-02-02T19:40:16.576Z,43.00
2019-02-02T19:42:45.977Z,41.43
2019-02-02T19:45:16.719Z,39.97
2019-02-02T19:47:45.785Z,42.33
2019-02-02T19:50:17.434Z,39.90
2019-02-02T19:52:46.546Z,41.47
2019-02-02T19:55:15.718Z,41.13
2019-02-02T19:57:45.032Z,45.47
2019-02-02T20:00:19.144Z,44.17
2019-02-02T20:02:48.230Z,42.77
2019-02-02T20:05:28.193Z,44.47
2019-02-02T20:07:48.333Z,46.20
2019-02-02T20:10:18.635Z,45.80
2019-02-02T20:12:47.800Z,40.43
2019-02-02T20:15:18.538Z,41.10
2019-02-02T20:17:47.695Z,42.57
2019-02-02T20:20:18.505Z,39.80
2019-02-02T20:22:47.796Z,41.03
2019-02-02T20:25:18.441Z,40.00
2019-02-02T20:27:47.576Z,40.67
2019-02-02T20:30:21.547Z,38.20
2019-02-02T20:32:50.614Z,38.33
2019-02-02T20:35:19.870Z,38.67
2019-02-02T20:37:49.076Z,37.63
2019-02-02T20:40:20.302Z,35.57
2019-02-02T20:42:50.582Z,35.43
2019-02-02T20:45:30.118Z,35.40
2019-02-02T20:47:59.225Z,35.07
2019-02-02T20:50:28.627Z,35.07
2019-02-02T20:52:57.873Z,33.57
2019-02-02T20:55:31.384Z,32.83
2019-02-02T20:58:00.572Z,32.77
2019-02-02T21:00:30.002Z,34.37
2019-02-02T21:02:59.252Z,33.50
2019-02-02T21:05:28.352Z,35.93
2019-02-02T21:07:57.416Z,34.57
2019-02-02T21:10:26.654Z,35.53
2019-02-02T21:12:55.898Z,33.13
2019-02-02T21:15:25.172Z,34.37
2019-02-02T21:17:54.357Z,34.00
2019-02-02T21:20:25.741Z,33.00
2019-02-02T21:22:54.938Z,35.00
2019-02-02T21:25:24.196Z,35.13
2019-02-02T21:27:53.354Z,30.70
2019-02-02T21:30:24.471Z,34.80
2019-02-02T21:32:53.566Z,33.10
2019-02-02T21:35:22.939Z,33.40
2019-02-02T21:37:52.037Z,35.53
2019-02-02T21:40:23.236Z,33.80
2019-02-02T21:42:52.322Z,33.43
2019-02-02T21:45:21.471Z,34.67
2019-02-02T21:47:50.689Z,34.97
2019-02-02T21:50:21.473Z,36.27
2019-02-02T21:52:50.690Z,35.97
2019-02-02T21:55:21.842Z,36.73
2019-02-02T21:57:51.055Z,35.00
2019-02-02T22:00:22.522Z,34.90
2019-02-02T22:02:51.637Z,36.27
2019-02-02T22:05:20.748Z,34.40
2019-02-02T22:07:49.952Z,36.63
2019-02-02T22:10:26.769Z,34.93
2019-02-02T22:13:03.117Z,35.23
2019-02-02T22:15:32.411Z,36.00
2019-02-02T22:18:01.584Z,34.37
2019-02-02T22:20:30.727Z,33.10
2019-02-02T22:22:59.777Z,33.47
2019-02-02T22:25:30.318Z,34.03
2019-02-02T22:27:59.417Z,34.07
2019-02-02T22:30:32.976Z,32.33
2019-02-02T22:33:02.117Z,34.57
2019-02-02T22:35:31.215Z,31.77
2019-02-02T22:38:00.636Z,33.33
2019-02-02T22:40:29.756Z,34.27
2019-02-02T22:42:58.835Z,33.50
2019-02-02T22:45:28.092Z,32.13
2019-02-02T22:47:57.153Z,32.57
2019-02-02T22:50:27.292Z,30.97
2019-02-02T22:52:56.408Z,33.17
2019-02-02T22:55:25.593Z,33.73
2019-02-02T22:57:54.801Z,31.90
2019-02-02T23:01:08.655Z,32.80
2019-02-02T23:03:47.143Z,32.83
2019-02-02T23:06:47.822Z,32.00
2019-02-02T23:10:09.258Z,33.80
2019-02-02T23:12:49.764Z,33.40
2019-02-02T23:15:56.397Z,33.33
2019-02-02T23:18:25.405Z,34.37
2019-02-02T23:20:54.480Z,34.00
2019-02-02T23:23:24.003Z,34.60
2019-02-02T23:25:52.942Z,33.80
2019-02-02T23:28:21.977Z,36.80
2019-02-02T23:30:51.055Z,35.10
2019-02-02T23:33:20.026Z,36.27
2019-02-02T23:35:49.155Z,36.57
2019-02-02T23:38:18.292Z,36.33
2019-02-02T23:40:47.442Z,36.03
2019-02-02T23:43:16.646Z,36.20
2019-02-02T23:45:45.795Z,33.73
2019-02-02T23:48:15.733Z,33.40
2019-02-02T23:50:45.155Z,35.33
2019-02-02T23:53:14.170Z,35.70
2019-02-02T23:55:43.356Z,35.57
2019-02-02T23:58:12.477Z,36.73
